Terminal Aerodrome Forecast
Issued by NWS Twin Cities, MN

Home | Current Version | Previous Version | Text Only | Print | Product List | Glossary Off
Versions: 1 2 3 4 5 6 7 8 9 10 11 12 13 14 15 16 17 18 19 20 21 22 23 24 25 26

000
FTUS43 KMPX 161445 AAA
TAFMSP
TAF AMD
KMSP 161445Z 1615/1718 21008KT P6SM SKC
     FM170000 19009KT P6SM SCT250
     FM170700 19008KT P6SM BKN100
     FM171300 21007KT P6SM OVC060=

USA.gov is the U.S. government's official web portal to all federal, state and local government web resources and services.